createdAt,value
2018-02-23T00:02:24.086Z,45.50
2018-02-23T00:04:51.639Z,45.50
2018-02-23T00:07:19.290Z,45.30
2018-02-23T00:09:46.897Z,45.70
2018-02-23T00:12:15.203Z,46.00
2018-02-23T00:14:42.761Z,45.40
2018-02-23T00:17:10.318Z,45.60
2018-02-23T00:19:37.866Z,45.60
2018-02-23T00:22:05.441Z,45.60
2018-02-23T00:24:33.019Z,45.70
2018-02-23T00:27:14.216Z,45.70
2018-02-23T00:29:41.769Z,45.60
2018-02-23T00:32:09.301Z,45.60
2018-02-23T00:34:36.985Z,45.60
2018-02-23T00:37:04.661Z,45.80
2018-02-23T00:39:32.188Z,45.80
2018-02-23T00:41:59.787Z,45.80
2018-02-23T00:44:27.346Z,45.90
2018-02-23T00:46:54.896Z,45.90
2018-02-23T00:49:22.473Z,45.80
2018-02-23T00:51:50.127Z,45.80
2018-02-23T00:54:17.670Z,45.80
2018-02-23T00:56:45.213Z,46.10
2018-02-23T00:59:12.818Z,46.00
2018-02-23T01:01:40.367Z,46.00
2018-02-23T01:04:07.932Z,46.00
2018-02-23T01:06:50.130Z,46.10
2018-02-23T01:09:17.781Z,46.20
2018-02-23T01:11:45.324Z,46.30
2018-02-23T01:14:12.912Z,46.20
2018-02-23T01:16:40.474Z,46.20
2018-02-23T01:19:20.978Z,46.20
2018-02-23T01:21:48.543Z,46.20
2018-02-23T01:24:16.881Z,46.90
2018-02-23T01:26:45.017Z,46.40
2018-02-23T01:29:12.619Z,46.40
2018-02-23T01:31:40.265Z,46.50
2018-02-23T01:34:07.846Z,46.50
2018-02-23T01:36:35.404Z,46.50
2018-02-23T01:39:02.963Z,46.60
2018-02-23T01:41:30.626Z,46.60
2018-02-23T01:43:58.189Z,46.60
2018-02-23T01:46:33.504Z,46.60
2018-02-23T01:49:01.072Z,46.60
2018-02-23T01:51:28.651Z,46.70
2018-02-23T01:53:56.205Z,46.70
2018-02-23T01:56:23.758Z,46.70
2018-02-23T01:58:51.335Z,46.80
2018-02-23T02:01:18.896Z,46.80
2018-02-23T02:03:46.447Z,46.80
2018-02-23T02:06:14.018Z,46.60
2018-02-23T02:08:41.578Z,46.60
2018-02-23T02:11:09.121Z,46.70
2018-02-23T02:13:36.709Z,46.70
2018-02-23T02:16:04.354Z,46.60
2018-02-23T02:18:31.924Z,46.70
2018-02-23T02:20:59.480Z,46.80
2018-02-23T02:23:27.128Z,46.60
2018-02-23T02:26:09.083Z,46.70
2018-02-23T02:28:37.404Z,46.90
2018-02-23T02:31:04.946Z,46.90
2018-02-23T02:33:32.485Z,46.80
2018-02-23T02:36:00.815Z,46.90
2018-02-23T02:38:49.168Z,46.80
2018-02-23T02:41:16.732Z,46.80
2018-02-23T02:43:44.269Z,46.90
2018-02-23T02:46:12.132Z,46.80
2018-02-23T02:48:39.799Z,46.80
2018-02-23T02:51:07.348Z,47.00
2018-02-23T02:53:34.885Z,46.80
2018-02-23T02:56:03.209Z,47.20
2018-02-23T02:58:30.763Z,47.20
2018-02-23T03:00:58.296Z,47.00
2018-02-23T03:03:33.357Z,47.10
2018-02-23T03:06:01.004Z,47.10
2018-02-23T03:08:28.548Z,47.20
2018-02-23T03:10:56.874Z,47.20
2018-02-23T03:13:24.538Z,47.10
2018-02-23T03:16:14.309Z,47.10
2018-02-23T03:18:41.889Z,47.00
2018-02-23T03:21:09.535Z,47.20
2018-02-23T03:23:37.194Z,47.10
2018-02-23T03:26:04.866Z,47.10
2018-02-23T03:28:53.438Z,47.00
2018-02-23T03:31:20.981Z,47.10
2018-02-23T03:33:48.543Z,47.20
2018-02-23T03:36:16.197Z,47.10
2018-02-23T03:38:43.744Z,47.00
2018-02-23T03:41:11.621Z,47.20
2018-02-23T03:43:39.200Z,47.20
2018-02-23T03:46:06.856Z,47.10
2018-02-23T03:48:34.405Z,47.20
2018-02-23T03:51:02.067Z,47.10
2018-02-23T03:53:36.782Z,47.20
2018-02-23T03:56:04.335Z,47.10
2018-02-23T03:58:31.886Z,47.20
2018-02-23T04:00:59.437Z,47.20
2018-02-23T04:03:27.863Z,47.40
2018-02-23T04:06:12.680Z,47.20
2018-02-23T04:08:41.015Z,47.30
2018-02-23T04:11:08.601Z,47.30
2018-02-23T04:13:36.231Z,47.30
2018-02-23T04:16:03.896Z,47.20
2018-02-23T04:18:52.859Z,47.20
2018-02-23T04:21:20.761Z,47.30
2018-02-23T04:23:48.336Z,47.30
2018-02-23T04:26:16.646Z,47.30
2018-02-23T04:28:44.274Z,47.80
2018-02-23T04:31:12.582Z,47.20
2018-02-23T04:33:40.164Z,47.20
2018-02-23T04:36:07.825Z,47.20
2018-02-23T04:38:35.370Z,47.00
2018-02-23T04:41:02.907Z,47.00
2018-02-23T04:43:38.357Z,46.70
2018-02-23T04:46:05.913Z,46.80
2018-02-23T04:48:33.461Z,46.60
2018-02-23T04:51:01.894Z,46.80
2018-02-23T04:53:29.493Z,46.80
2018-02-23T04:56:19.419Z,46.50
2018-02-23T04:58:46.973Z,46.50
2018-02-23T05:01:14.793Z,46.40
2018-02-23T05:03:42.378Z,46.20
2018-02-23T05:06:10.719Z,46.00
2018-02-23T05:08:55.497Z,46.00
2018-02-23T05:11:23.145Z,46.00
2018-02-23T05:13:50.693Z,45.80
2018-02-23T05:16:18.254Z,45.90
2018-02-23T05:18:45.811Z,46.00
2018-02-23T05:21:13.356Z,46.00
2018-02-23T05:23:40.919Z,46.00
2018-02-23T05:26:08.456Z,46.00
2018-02-23T05:28:35.990Z,46.20
2018-02-23T05:31:03.555Z,46.20
2018-02-23T05:33:40.644Z,46.30
2018-02-23T05:36:09.092Z,46.40
2018-02-23T05:38:36.638Z,46.30
2018-02-23T05:41:04.193Z,46.30
2018-02-23T05:43:31.870Z,46.40
2018-02-23T05:45:59.442Z,46.20
2018-02-23T05:48:26.990Z,46.10
2018-02-23T05:50:54.652Z,46.00
2018-02-23T05:53:22.191Z,46.00
2018-02-23T05:55:49.752Z,46.00
2018-02-23T05:58:17.302Z,46.00
2018-02-23T06:00:44.838Z,46.10
2018-02-23T06:03:13.144Z,46.20
2018-02-23T06:05:40.728Z,46.20
2018-02-23T06:08:08.291Z,46.20
2018-02-23T06:10:35.833Z,46.20
2018-02-23T06:13:03.399Z,46.20
2018-02-23T06:15:36.657Z,46.30
2018-02-23T06:18:07.835Z,46.20
2018-02-23T06:20:35.412Z,46.20
2018-02-23T06:23:02.950Z,46.20
2018-02-23T06:25:30.505Z,46.10
2018-02-23T06:27:58.082Z,46.00
2018-02-23T06:30:25.630Z,45.90
2018-02-23T06:32:53.197Z,45.90
2018-02-23T06:35:20.763Z,46.00
2018-02-23T06:37:48.295Z,46.00
2018-02-23T06:40:15.894Z,46.10
2018-02-23T06:42:43.447Z,46.10
2018-02-23T06:45:11.006Z,46.20
2018-02-23T06:47:38.576Z,46.20
2018-02-23T06:50:06.167Z,46.20
2018-02-23T06:52:33.697Z,46.20
2018-02-23T06:55:04.373Z,46.20
2018-02-23T06:57:32.681Z,46.20
2018-02-23T07:00:00.226Z,46.10
2018-02-23T07:02:27.934Z,46.10
2018-02-23T07:04:55.493Z,46.10
2018-02-23T07:07:44.452Z,46.10
2018-02-23T07:10:12.316Z,46.10
2018-02-23T07:12:39.904Z,46.20
2018-02-23T07:15:07.489Z,46.20
2018-02-23T07:17:35.838Z,46.30
2018-02-23T07:20:03.482Z,46.30
2018-02-23T07:22:31.044Z,46.20
2018-02-23T07:24:58.603Z,46.10
2018-02-23T07:27:26.167Z,46.00
2018-02-23T07:29:53.821Z,46.60
2018-02-23T07:32:31.274Z,46.00
2018-02-23T07:34:59.596Z,46.10
2018-02-23T07:37:27.140Z,46.00
2018-02-23T07:39:54.722Z,46.00
2018-02-23T07:42:22.419Z,46.00
2018-02-23T07:44:50.745Z,46.80
2018-02-23T07:47:21.380Z,46.20
2018-02-23T07:49:48.949Z,45.30
2018-02-23T07:52:16.501Z,44.80
2018-02-23T07:54:44.051Z,44.60
2018-02-23T07:57:11.636Z,44.60
2018-02-23T08:00:01.366Z,44.60
2018-02-23T08:02:29.798Z,44.80
2018-02-23T08:04:57.337Z,44.70
2018-02-23T08:07:24.914Z,45.40
2018-02-23T08:09:52.516Z,44.70
2018-02-23T08:12:20.833Z,44.30
2018-02-23T08:14:48.381Z,43.90
2018-02-23T08:23:18.561Z,44.00
2018-02-23T08:25:46.113Z,48.10
2018-02-23T08:28:55.320Z,49.00
2018-02-23T08:31:23.647Z,50.10
2018-02-23T08:33:51.206Z,50.30
2018-02-23T08:36:18.772Z,47.90
2018-02-23T08:39:22.080Z,44.70
2018-02-23T08:41:49.655Z,44.30
2018-02-23T08:44:17.216Z,44.70
2018-02-23T08:50:08.268Z,44.70
2018-02-23T08:52:36.603Z,46.50
2018-02-23T08:58:25.427Z,45.20
2018-02-23T09:00:53.752Z,48.60
2018-02-23T09:10:25.956Z,49.10
2018-02-23T09:12:53.499Z,47.70
2018-02-23T09:15:21.826Z,50.30
2018-02-23T09:17:49.408Z,50.30
2018-02-23T09:20:16.980Z,50.60
2018-02-23T09:22:44.525Z,50.50
2018-02-23T09:25:12.093Z,52.20
2018-02-23T09:27:39.641Z,50.80
2018-02-23T09:30:07.194Z,50.70
2018-02-23T09:32:38.687Z,50.10
2018-02-23T09:35:07.014Z,49.90
2018-02-23T09:37:34.561Z,49.80
2018-02-23T09:40:02.124Z,50.10
2018-02-23T09:42:29.672Z,49.90
2018-02-23T09:44:57.221Z,49.90
2018-02-23T09:47:24.781Z,49.80
2018-02-23T09:49:52.338Z,49.70
2018-02-23T09:52:20.656Z,50.20
2018-02-23T09:54:48.223Z,50.20
2018-02-23T09:57:23.554Z,50.30
2018-02-23T09:59:51.112Z,50.30
2018-02-23T10:02:18.679Z,50.20
2018-02-23T10:04:46.239Z,50.20
2018-02-23T10:07:13.797Z,51.20
2018-02-23T10:09:41.352Z,51.60
2018-02-23T10:12:08.912Z,52.30
2018-02-23T10:14:36.476Z,50.60
2018-02-23T10:17:04.017Z,51.80
2018-02-23T10:19:31.575Z,50.50
2018-02-23T10:21:59.160Z,50.50
2018-02-23T10:24:26.748Z,50.80
2018-02-23T10:26:55.095Z,50.40
2018-02-23T10:29:22.667Z,50.30
2018-02-23T10:31:50.240Z,50.60
2018-02-23T10:34:28.531Z,50.50
2018-02-23T10:40:44.546Z,49.10
2018-02-23T10:46:33.527Z,48.60
2018-02-23T10:49:01.095Z,48.40
2018-02-23T10:54:58.389Z,48.30
2018-02-23T10:57:25.959Z,48.30
2018-02-23T11:00:41.990Z,48.40
2018-02-23T11:03:10.330Z,47.90
2018-02-23T11:05:37.886Z,47.90
2018-02-23T11:08:05.428Z,48.10
2018-02-23T11:11:07.984Z,47.90
2018-02-23T11:13:35.540Z,48.10
2018-02-23T11:16:04.685Z,47.90
2018-02-23T11:18:32.285Z,47.90
2018-02-23T11:21:07.993Z,47.90
2018-02-23T11:27:25.172Z,47.30
2018-02-23T11:29:52.735Z,47.00
2018-02-23T11:32:21.079Z,47.30
2018-02-23T11:34:48.658Z,46.70
2018-02-23T11:37:16.234Z,46.50
2018-02-23T11:39:43.802Z,46.40
2018-02-23T11:42:12.145Z,46.20
2018-02-23T11:44:39.720Z,46.20
2018-02-23T11:47:07.290Z,45.90
2018-02-23T11:49:35.028Z,46.00
2018-02-23T11:52:02.587Z,46.00
2018-02-23T11:54:30.157Z,46.00
2018-02-23T11:56:57.731Z,45.70
2018-02-23T11:59:25.321Z,45.50
2018-02-23T12:01:53.646Z,45.30
2018-02-23T12:08:12.358Z,45.30
2018-02-23T12:14:28.926Z,44.90
2018-02-23T12:16:56.485Z,44.90
2018-02-23T12:19:24.039Z,44.80
2018-02-23T12:29:01.773Z,44.60
2018-02-23T12:31:30.096Z,44.90
2018-02-23T12:34:42.674Z,44.80
2018-02-23T12:37:10.999Z,44.70
2018-02-23T12:42:59.940Z,44.60
2018-02-23T12:45:28.275Z,44.60
2018-02-23T12:51:16.802Z,44.50
2018-02-23T12:53:44.359Z,44.40
2018-02-23T12:56:12.673Z,44.40
2018-02-23T12:58:40.230Z,44.40
2018-02-23T13:01:07.771Z,44.40
2018-02-23T13:03:35.327Z,44.40
2018-02-23T13:06:02.896Z,45.10
2018-02-23T13:08:30.530Z,44.60
2018-02-23T13:11:20.234Z,44.70
2018-02-23T13:13:53.853Z,44.70
2018-02-23T13:16:27.068Z,44.70
2018-02-23T13:18:54.609Z,44.50
2018-02-23T13:21:22.177Z,44.50
2018-02-23T13:23:49.758Z,44.50
2018-02-23T13:26:17.319Z,44.50
2018-02-23T13:28:44.890Z,44.40
2018-02-23T13:31:12.467Z,44.40
2018-02-23T13:33:40.805Z,44.50
2018-02-23T13:36:08.360Z,44.50
2018-02-23T13:38:35.917Z,45.10
2018-02-23T13:41:09.237Z,44.50
2018-02-23T13:43:36.810Z,44.50
2018-02-23T13:46:05.154Z,45.30
2018-02-23T13:48:32.714Z,44.60
2018-02-23T13:51:00.301Z,44.60
2018-02-23T13:53:33.538Z,44.50
2018-02-23T13:56:01.120Z,44.50
2018-02-23T13:58:28.680Z,44.40
2018-02-23T14:00:56.217Z,44.60
2018-02-23T14:03:23.780Z,44.50
2018-02-23T14:05:51.329Z,44.70
2018-02-23T14:08:18.898Z,44.70
2018-02-23T14:10:47.229Z,44.80
2018-02-23T14:13:29.635Z,44.80
2018-02-23T14:15:57.194Z,44.80
2018-02-23T14:18:24.777Z,44.80
2018-02-23T14:20:52.331Z,44.90
2018-02-23T14:23:19.895Z,44.90
2018-02-23T14:25:47.445Z,44.90
2018-02-23T14:28:15.058Z,44.70
2018-02-23T14:30:42.636Z,44.70
2018-02-23T14:33:10.202Z,44.70
2018-02-23T14:35:37.758Z,44.70
2018-02-23T14:38:05.349Z,44.70
2018-02-23T14:40:32.907Z,44.80
2018-02-23T14:43:00.472Z,44.80
2018-02-23T14:45:28.034Z,44.60
2018-02-23T14:47:55.613Z,44.50
2018-02-23T14:50:50.652Z,44.60
2018-02-23T14:53:18.193Z,44.50
2018-02-23T14:55:46.517Z,44.40
2018-02-23T14:58:14.086Z,44.40
2018-02-23T15:00:41.637Z,44.40
2018-02-23T15:03:09.208Z,44.40
2018-02-23T15:05:36.757Z,44.40
2018-02-23T15:08:04.300Z,44.30
2018-02-23T15:10:31.860Z,44.40
2018-02-23T15:12:59.429Z,44.50
2018-02-23T15:15:26.987Z,44.50
2018-02-23T15:17:54.536Z,44.40
2018-02-23T15:20:36.438Z,44.30
2018-02-23T15:23:03.982Z,44.30
2018-02-23T15:25:31.526Z,44.30
2018-02-23T15:27:59.861Z,44.50
2018-02-23T15:30:39.155Z,44.30
2018-02-23T15:33:06.712Z,44.30
2018-02-23T15:35:35.057Z,44.50
2018-02-23T15:38:02.611Z,44.30
2018-02-23T15:40:30.218Z,44.30
2018-02-23T15:42:57.776Z,44.30
2018-02-23T15:45:26.098Z,44.20
2018-02-23T15:47:58.172Z,44.10
2018-02-23T15:50:40.616Z,44.10
2018-02-23T15:53:08.942Z,43.90
2018-02-23T15:55:36.498Z,43.80
2018-02-23T15:58:07.722Z,43.80
2018-02-23T16:00:35.835Z,43.70
2018-02-23T16:03:03.390Z,43.70
2018-02-23T16:05:30.926Z,43.80
2018-02-23T16:07:58.540Z,43.90
2018-02-23T16:10:26.111Z,44.00
2018-02-23T16:12:53.682Z,44.00
2018-02-23T16:15:22.031Z,44.10
2018-02-23T16:17:49.586Z,44.10
2018-02-23T16:20:17.902Z,43.80
2018-02-23T16:22:46.237Z,43.90
2018-02-23T16:25:13.782Z,43.80
2018-02-23T16:27:42.124Z,43.80
2018-02-23T16:30:10.445Z,43.70
2018-02-23T16:32:38.011Z,43.70
2018-02-23T16:35:05.556Z,43.70
2018-02-23T16:37:33.855Z,43.80
2018-02-23T16:40:01.416Z,43.70
2018-02-23T16:42:29.010Z,43.70
2018-02-23T16:44:56.637Z,43.60
2018-02-23T16:47:24.185Z,43.50
2018-02-23T16:49:51.739Z,43.50
2018-02-23T16:52:19.312Z,43.60
2018-02-23T16:54:46.869Z,43.50
2018-02-23T16:57:14.420Z,43.60
2018-02-23T16:59:41.999Z,43.60
2018-02-23T17:02:09.565Z,43.70
2018-02-23T17:04:37.115Z,43.70
2018-02-23T17:07:04.680Z,43.70
2018-02-23T17:09:32.232Z,43.40
2018-02-23T17:11:59.783Z,43.50
2018-02-23T17:14:27.358Z,43.50
2018-02-23T17:16:54.915Z,43.50
2018-02-23T17:19:23.239Z,43.50
2018-02-23T17:21:51.563Z,43.90
2018-02-23T17:24:19.129Z,43.30
2018-02-23T17:26:46.721Z,43.30
2018-02-23T17:29:14.295Z,43.20
2018-02-23T17:31:42.599Z,43.20
2018-02-23T17:34:10.149Z,43.20
2018-02-23T17:36:38.465Z,43.10
2018-02-23T17:39:06.031Z,43.10
2018-02-23T17:41:33.586Z,42.80
2018-02-23T17:44:01.168Z,42.50
2018-02-23T17:46:28.714Z,42.70
2018-02-23T17:48:56.264Z,42.40
2018-02-23T17:51:23.807Z,42.50
2018-02-23T17:53:51.364Z,42.20
2018-02-23T17:56:18.918Z,42.10
2018-02-23T17:58:46.473Z,42.00
2018-02-23T18:01:14.056Z,41.80
2018-02-23T18:03:41.584Z,41.90
2018-02-23T18:06:09.886Z,41.90
2018-02-23T18:08:37.428Z,41.80
2018-02-23T18:11:05.769Z,41.90
2018-02-23T18:13:33.327Z,41.90
2018-02-23T18:16:02.477Z,42.00
2018-02-23T18:18:30.052Z,42.10
2018-02-23T18:20:57.635Z,42.00
2018-02-23T18:23:25.952Z,42.70
2018-02-23T18:25:54.318Z,42.30
2018-02-23T18:28:21.892Z,42.30
2018-02-23T18:30:50.273Z,42.30
2018-02-23T18:33:19.130Z,42.50
2018-02-23T18:35:46.688Z,42.30
2018-02-23T18:38:14.224Z,42.40
2018-02-23T18:40:41.754Z,42.50
2018-02-23T18:43:10.160Z,42.80
2018-02-23T18:45:37.761Z,42.70
2018-02-23T18:48:06.095Z,42.70
2018-02-23T18:50:33.667Z,42.60
2018-02-23T18:53:01.215Z,42.70
2018-02-23T18:55:28.798Z,42.70
2018-02-23T18:57:56.373Z,42.70
2018-02-23T19:00:23.925Z,42.70
2018-02-23T19:02:51.475Z,42.70
2018-02-23T19:05:19.033Z,42.90
2018-02-23T19:07:46.602Z,42.70
2018-02-23T19:10:14.172Z,42.70
2018-02-23T19:12:41.764Z,42.90
2018-02-23T19:15:10.106Z,43.40
2018-02-23T19:17:37.672Z,42.80
2018-02-23T19:20:05.229Z,42.80
2018-02-23T19:22:32.769Z,42.70
2018-02-23T19:25:00.316Z,42.80
2018-02-23T19:27:27.868Z,42.70
2018-02-23T19:29:56.189Z,42.90
2018-02-23T19:32:23.734Z,42.90
2018-02-23T19:34:51.302Z,42.90
2018-02-23T19:37:18.858Z,42.80
2018-02-23T19:39:46.413Z,43.00
2018-02-23T19:42:13.995Z,43.00
2018-02-23T19:48:02.712Z,43.10
2018-02-23T19:50:31.041Z,43.10
2018-02-23T19:52:58.601Z,42.90
2018-02-23T19:55:26.152Z,43.00
2018-02-23T19:57:53.699Z,43.00
2018-02-23T20:00:21.274Z,43.10
2018-02-23T20:02:48.838Z,42.90
2018-02-23T20:05:16.419Z,43.00
2018-02-23T20:07:43.990Z,42.90
2018-02-23T20:10:14.176Z,43.00
2018-02-23T20:12:41.732Z,42.90
2018-02-23T20:15:09.282Z,43.00
2018-02-23T20:17:36.851Z,42.90
2018-02-23T20:20:04.391Z,42.80
2018-02-23T20:22:31.954Z,42.90
2018-02-23T20:24:59.519Z,42.80
2018-02-23T20:27:27.074Z,42.80
2018-02-23T20:29:54.632Z,42.90
2018-02-23T20:32:22.215Z,42.90
2018-02-23T20:34:49.796Z,42.70
2018-02-23T20:37:17.372Z,42.90
2018-02-23T20:39:44.938Z,42.90
2018-02-23T20:42:13.262Z,42.90
2018-02-23T20:44:40.828Z,42.80
2018-02-23T20:47:08.391Z,42.90
2018-02-23T20:49:35.951Z,43.00
2018-02-23T20:52:03.492Z,43.00
2018-02-23T20:54:44.893Z,42.90
2018-02-23T20:57:12.449Z,43.00
2018-02-23T20:59:40.839Z,43.00
2018-02-23T21:02:08.407Z,42.90
2018-02-23T21:04:36.004Z,42.80
2018-02-23T21:07:03.534Z,42.90
2018-02-23T21:09:31.100Z,42.90
2018-02-23T21:11:58.731Z,43.10
2018-02-23T21:14:26.298Z,43.20
2018-02-23T21:16:53.881Z,43.10
2018-02-23T21:19:21.427Z,43.10
2018-02-23T21:21:48.996Z,43.00
2018-02-23T21:24:16.569Z,43.10
2018-02-23T21:26:44.155Z,43.10
2018-02-23T21:29:12.483Z,43.00
2018-02-23T21:31:40.042Z,42.90
2018-02-23T21:34:07.596Z,42.90
2018-02-23T21:36:35.141Z,42.90
2018-02-23T21:39:02.729Z,42.70
2018-02-23T21:41:42.037Z,42.90
2018-02-23T21:44:09.615Z,42.80
2018-02-23T21:46:37.166Z,42.90
2018-02-23T21:49:04.926Z,42.70
2018-02-23T21:51:32.521Z,42.80
2018-02-23T21:54:00.074Z,42.80
2018-02-23T21:56:27.625Z,42.60
2018-02-23T21:58:55.193Z,42.70
2018-02-23T22:01:22.745Z,42.70
2018-02-23T22:03:50.294Z,42.50
2018-02-23T22:06:17.856Z,42.60
2018-02-23T22:08:45.415Z,42.60
2018-02-23T22:11:12.972Z,42.50
2018-02-23T22:14:01.559Z,42.60
2018-02-23T22:16:29.114Z,42.50
2018-02-23T22:18:57.407Z,42.80
2018-02-23T22:21:24.981Z,42.40
2018-02-23T22:23:52.530Z,42.70
2018-02-23T22:26:37.766Z,42.80
2018-02-23T22:29:05.755Z,42.90
2018-02-23T22:31:33.305Z,43.00
2018-02-23T22:34:00.882Z,42.90
2018-02-23T22:36:28.446Z,43.00
2018-02-23T22:38:55.985Z,43.00
2018-02-23T22:41:23.544Z,43.00
2018-02-23T22:43:51.098Z,43.60
2018-02-23T22:46:18.663Z,43.10
2018-02-23T22:48:46.225Z,43.10
2018-02-23T22:51:24.918Z,43.10
2018-02-23T22:53:53.258Z,43.20
2018-02-23T22:56:20.824Z,43.20
2018-02-23T22:58:48.427Z,43.20
2018-02-23T23:01:16.752Z,43.30
2018-02-23T23:03:53.086Z,43.30
2018-02-23T23:06:20.657Z,43.30
2018-02-23T23:08:48.221Z,43.30
2018-02-23T23:11:15.766Z,43.40
2018-02-23T23:13:43.329Z,43.50
2018-02-23T23:16:10.875Z,43.30
2018-02-23T23:18:38.421Z,43.40
2018-02-23T23:21:06.751Z,43.50
2018-02-23T23:23:34.296Z,43.40
2018-02-23T23:26:01.853Z,43.40
2018-02-23T23:28:29.422Z,43.40
2018-02-23T23:30:56.977Z,43.30
2018-02-23T23:33:24.520Z,43.40
2018-02-23T23:35:52.088Z,43.50
2018-02-23T23:38:19.641Z,43.50
2018-02-23T23:40:47.197Z,43.60
2018-02-23T23:43:14.761Z,43.70
2018-02-23T23:45:49.714Z,43.70
2018-02-23T23:48:17.264Z,43.60
2018-02-23T23:50:44.870Z,43.70
2018-02-23T23:53:12.418Z,43.70
2018-02-23T23:55:39.979Z,43.70
2018-02-23T23:58:07.529Z,43.60
